Time;durP1;ratioP1;P1;durP2;ratioP2;P2;SDS_P1;SDS_P2;PMS_P1;PMS_P2;Temp;Humidity;BMP_temperature;BMP_pressure;BME280_temperature;BME280_humidity;BME280_pressure;Samples;Min_cycle;Max_cycle;Signal;HPM_P1;HPM_P2
2022/12/05 00:02:26;;;;;;;1.67;1.58;;;;;;;4.29;100.00;95556.22;5146487;27;20201;-75
2022/12/05 00:04:52;;;;;;;3.17;1.83;;;;;;;4.33;100.00;95553.00;5147565;27;20204;-75
2022/12/05 00:07:20;;;;;;;2.88;1.75;;;;;;;4.37;100.00;95551.41;5142412;27;20200;-75
2022/12/05 00:09:47;;;;;;;4.88;2.85;;;;;;;4.26;100.00;95554.06;5139332;27;20204;-75
2022/12/05 00:12:14;;;;;;;3.70;2.03;;;;;;;4.25;100.00;95554.31;5142054;27;20204;-74
2022/12/05 00:14:41;;;;;;;9.95;2.97;;;;;;;4.25;100.00;95555.13;5140541;27;20297;-75
2022/12/05 00:17:07;;;;;;;3.03;2.35;;;;;;;4.17;100.00;95552.97;5145790;27;20201;-76
2022/12/05 00:19:34;;;;;;;5.38;2.50;;;;;;;4.17;100.00;95558.34;5147476;27;20445;-76
2022/12/05 00:22:01;;;;;;;4.00;2.03;;;;;;;4.14;100.00;95558.06;5142201;27;20207;-76
2022/12/05 00:24:29;;;;;;;3.22;2.30;;;;;;;4.21;100.00;95556.75;5140735;27;20254;-77
2022/12/05 00:26:56;;;;;;;2.53;1.67;;;;;;;4.08;100.00;95559.94;5146006;27;20255;-76
2022/12/05 00:29:22;;;;;;;4.00;2.05;;;;;;;4.18;100.00;95559.94;5135424;27;20213;-75
2022/12/05 00:31:49;;;;;;;3.75;2.47;;;;;;;4.12;100.00;95566.34;5145594;27;20216;-75
2022/12/05 00:34:16;;;;;;;3.00;2.17;;;;;;;4.14;100.00;95564.22;5147613;27;20237;-76
2022/12/05 00:36:43;;;;;;;2.22;1.48;;;;;;;4.17;100.00;95568.25;5141925;27;20200;-75
2022/12/05 00:39:13;;;;;;;3.75;1.85;;;;;;;4.16;100.00;95567.44;5140088;27;20232;-75
2022/12/05 00:41:42;;;;;;;3.05;1.75;;;;;;;4.19;100.00;95572.28;5144873;27;20292;-75
2022/12/05 00:44:11;;;;;;;5.32;1.58;;;;;;;4.26;100.00;95572.84;5147143;27;20311;-75
2022/12/05 00:46:37;;;;;;;4.90;2.78;;;;;;;4.23;100.00;95573.38;5143624;27;20200;-76
2022/12/05 00:49:06;;;;;;;2.63;1.75;;;;;;;4.24;100.00;95569.59;5142179;27;20715;-75
2022/12/05 00:51:35;;;;;;;3.28;2.15;;;;;;;4.26;100.00;95577.38;5153876;27;20300;-75
2022/12/05 00:54:04;;;;;;;4.78;3.03;;;;;;;4.35;100.00;95569.66;5134175;27;20221;-76
2022/12/05 00:56:31;;;;;;;5.97;2.55;;;;;;;4.36;100.00;95563.22;5146257;27;20207;-74
2022/12/05 00:59:00;;;;;;;2.40;2.05;;;;;;;4.49;100.00;95560.03;5139668;27;20686;-75
2022/12/05 01:01:31;;;;;;;2.95;2.00;;;;;;;4.39;100.00;95559.97;5153858;27;20204;-75
2022/12/05 01:04:01;;;;;;;3.63;2.35;;;;;;;4.30;100.00;95548.97;5133051;27;20230;-74
2022/12/05 01:06:28;;;;;;;2.03;1.67;;;;;;;4.19;100.00;95545.47;5134602;27;20533;-75
2022/12/05 01:08:56;;;;;;;3.53;1.83;;;;;;;4.18;100.00;95543.88;5145064;27;20205;-75
2022/12/05 01:11:24;;;;;;;5.97;1.92;;;;;;;4.21;100.00;95543.34;5146697;27;20204;-76
2022/12/05 01:13:51;;;;;;;6.18;2.90;;;;;;;4.25;100.00;95549.75;5132841;27;20261;-74
2022/12/05 01:16:24;;;;;;;3.97;2.05;;;;;;;4.39;100.00;95543.88;5146862;27;20260;-76
2022/12/05 01:18:51;;;;;;;3.92;2.20;;;;;;;4.27;100.00;95547.63;5132611;27;20274;-76
2022/12/05 01:21:19;;;;;;;5.05;3.08;;;;;;;4.17;100.00;95546.81;5146527;27;20680;-75
2022/12/05 01:23:47;;;;;;;1.45;0.93;;;;;;;4.14;100.00;95548.13;5132991;27;20189;-76
2022/12/05 01:26:15;;;;;;;5.20;2.53;;;;;;;4.12;100.00;95538.75;5132503;27;20670;-76
2022/12/05 01:28:42;;;;;;;6.40;2.45;;;;;;;4.24;100.00;95547.34;5143615;27;20264;-75
2022/12/05 01:31:16;;;;;;;2.40;1.98;;;;;;;4.20;100.00;95536.38;5139479;27;20253;-76
2022/12/05 01:33:44;;;;;;;6.97;3.25;;;;;;;4.20;100.00;95536.38;5141063;27;20201;-76
2022/12/05 01:36:11;;;;;;;2.90;2.50;;;;;;;4.17;100.00;95531.53;5145835;27;20282;-76
2022/12/05 01:38:39;;;;;;;4.03;2.08;;;;;;;4.14;100.00;95532.03;5145289;27;20228;-75
2022/12/05 01:41:07;;;;;;;2.85;2.10;;;;;;;4.04;100.00;95520.50;5138384;27;20260;-75
2022/12/05 01:43:52;;;;;;;4.32;1.73;;;;;;;4.02;100.00;95523.44;5139703;27;20713;-76
2022/12/05 01:46:19;;;;;;;15.77;4.90;;;;;;;3.95;100.00;95516.72;5141789;27;20260;-75
2022/12/05 01:48:47;;;;;;;5.30;3.00;;;;;;;3.89;100.00;95519.38;5137033;27;20209;-75
2022/12/05 01:51:15;;;;;;;3.38;1.77;;;;;;;3.92;100.00;95518.06;5141333;27;20286;-75
2022/12/05 01:53:41;;;;;;;8.23;2.85;;;;;;;3.92;100.00;95516.19;5149635;27;20209;-74
2022/12/05 01:56:09;;;;;;;0.80;0.68;;;;;;;3.86;100.00;95514.53;5132008;27;20246;-75
2022/12/05 01:58:38;;;;;;;6.28;2.35;;;;;;;3.87;100.00;95526.06;5131807;27;20708;-75
2022/12/05 02:01:06;;;;;;;7.68;3.50;;;;;;;3.76;100.00;95524.44;5143144;27;20207;-76
2022/12/05 02:03:33;;;;;;;5.55;2.90;;;;;;;3.80;100.00;95525.53;5134713;27;20204;-75
2022/12/05 02:06:03;;;;;;;2.35;1.45;;;;;;;3.85;100.00;95514.81;5138099;27;20250;-76
2022/12/05 02:08:30;;;;;;;4.18;2.42;;;;;;;3.76;100.00;95513.72;5131574;27;20201;-76
2022/12/05 02:10:58;;;;;;;3.58;1.77;;;;;;;3.78;100.00;95522.28;5143799;27;20269;-75
2022/12/05 02:13:39;;;;;;;4.40;2.28;;;;;;;3.88;100.00;95527.69;5138113;27;20200;-75
2022/12/05 02:16:13;;;;;;;4.82;2.55;;;;;;;3.96;100.00;95529.88;5138353;27;20262;-75
2022/12/05 02:18:50;;;;;;;3.60;1.10;;;;;;;4.01;100.00;95521.81;5143992;27;20192;-75
2022/12/05 02:21:38;;;;;;;5.07;2.33;;;;;;;4.02;100.00;95522.63;5134306;27;20266;-76
2022/12/05 02:24:52;;;;;;;1.88;1.73;;;;;;;4.15;100.00;95522.94;5151421;27;20188;-76
2022/12/05 02:27:37;;;;;;;4.13;3.28;;;;;;;4.37;100.00;95524.59;5144457;27;20609;-76
2022/12/05 02:30:12;;;;;;;4.50;2.92;;;;;;;4.44;100.00;95528.63;5131436;27;20199;-76
2022/12/05 02:32:50;;;;;;;3.15;2.42;;;;;;;4.50;100.00;95524.06;5144782;27;20191;-77
2022/12/05 02:35:30;;;;;;;5.00;2.33;;;;;;;4.63;100.00;95529.72;5142204;27;20283;-75
2022/12/05 02:38:08;;;;;;;4.25;1.92;;;;;;;4.74;100.00;95519.78;5138073;27;20199;-76
2022/12/05 02:40:43;;;;;;;3.90;2.67;;;;;;;4.83;100.00;95512.00;5136842;27;20219;-76
2022/12/05 02:43:17;;;;;;;6.35;3.53;;;;;;;4.77;100.00;95513.88;5140951;27;20217;-75
2022/12/05 02:45:48;;;;;;;2.90;1.80;;;;;;;4.73;100.00;95512.81;5138153;27;20207;-75
2022/12/05 02:48:16;;;;;;;2.85;2.10;;;;;;;4.68;100.00;95509.31;5141607;27;20204;-76
2022/12/05 02:50:46;;;;;;;3.97;1.73;;;;;;;4.75;100.00;95499.13;5137008;27;20743;-75
2022/12/05 02:53:16;;;;;;;3.53;2.25;;;;;;;4.68;100.00;95504.75;5136495;27;20248;-75
2022/12/05 02:55:45;;;;;;;5.70;2.13;;;;;;;4.72;100.00;95500.47;5137584;27;20200;-76
2022/12/05 02:58:17;;;;;;;4.53;1.98;;;;;;;4.70;100.00;95502.59;5137388;27;20683;-76
2022/12/05 03:00:49;;;;;;;5.88;2.35;;;;;;;4.62;100.00;95500.47;5144059;27;20285;-76
2022/12/05 03:03:19;;;;;;;5.95;2.45;;;;;;;4.65;100.00;95505.28;5144956;27;20188;-76
2022/12/05 03:05:55;;;;;;;4.68;3.00;;;;;;;4.60;100.00;95494.56;5140202;27;20207;-76
2022/12/05 03:08:29;;;;;;;3.90;2.08;;;;;;;4.68;100.00;95494.00;5137776;27;20207;-75
2022/12/05 03:10:58;;;;;;;3.47;2.67;;;;;;;4.62;100.00;95495.91;5139777;27;20204;-74
2022/12/05 03:13:29;;;;;;;5.53;2.15;;;;;;;4.59;100.00;95495.63;5144367;27;20261;-75
2022/12/05 03:16:02;;;;;;;4.22;2.53;;;;;;;4.69;100.00;95506.34;5143501;27;20247;-75
2022/12/05 03:18:33;;;;;;;2.05;1.67;;;;;;;4.83;100.00;95499.38;5144344;27;20193;-75
2022/12/05 03:21:04;;;;;;;3.97;2.10;;;;;;;4.84;100.00;95500.19;5144074;27;20268;-75
2022/12/05 03:23:34;;;;;;;2.42;2.00;;;;;;;4.62;100.00;95497.78;5130896;27;20181;-75
2022/12/05 03:26:11;;;;;;;3.88;2.08;;;;;;;4.77;100.00;95502.34;5131116;28;20197;-76
2022/12/05 03:28:49;;;;;;;2.63;1.80;;;;;;;4.93;100.00;95506.59;5141597;27;20586;-75
2022/12/05 03:31:24;;;;;;;4.65;2.08;;;;;;;4.95;100.00;95505.25;5131903;27;20582;-75
2022/12/05 03:33:57;;;;;;;5.55;2.83;;;;;;;4.85;100.00;95504.47;5144756;27;20203;-75
2022/12/05 03:36:31;;;;;;;5.43;3.03;;;;;;;4.90;100.00;95507.97;5138478;27;20759;-75
2022/12/05 03:39:05;;;;;;;4.43;2.28;;;;;;;4.95;100.00;95505.25;5137082;27;20188;-75
2022/12/05 03:41:38;;;;;;;7.28;2.33;;;;;;;5.05;99.84;95514.41;5141533;27;20238;-75
2022/12/05 03:44:10;;;;;;;2.72;2.03;;;;;;;4.99;99.56;95511.72;5147993;27;20204;-75
2022/12/05 03:46:42;;;;;;;4.65;3.13;;;;;;;5.05;99.39;95504.47;5139855;27;20223;-75
2022/12/05 03:49:15;;;;;;;4.78;2.25;;;;;;;5.05;98.89;95503.66;5143484;27;20393;-75
2022/12/05 03:51:46;;;;;;;5.32;2.75;;;;;;;4.98;99.47;95510.09;5130019;27;20201;-76
2022/12/05 03:54:18;;;;;;;3.20;1.77;;;;;;;5.11;98.80;95513.31;5130071;28;20209;-76
2022/12/05 03:56:50;;;;;;;2.20;2.00;;;;;;;5.20;98.28;95514.34;5144333;27;20189;-76
2022/12/05 03:59:20;;;;;;;5.07;2.55;;;;;;;5.22;97.67;95517.56;5130120;28;20269;-75
2022/12/05 04:01:51;;;;;;;2.92;2.30;;;;;;;5.21;98.16;95507.91;5132881;27;20200;-75
2022/12/05 04:04:24;;;;;;;5.00;2.75;;;;;;;5.26;97.88;95510.59;5143370;27;20867;-75
2022/12/05 04:06:55;;;;;;;5.15;2.78;;;;;;;5.30;97.75;95500.91;5148640;27;20197;-75
2022/12/05 04:09:26;;;;;;;3.20;2.47;;;;;;;5.36;97.18;95494.44;5146614;27;20204;-75
2022/12/05 04:11:57;;;;;;;6.15;3.17;;;;;;;5.47;96.92;95498.69;5140505;27;20196;-75
2022/12/05 04:14:29;;;;;;;4.80;3.00;;;;;;;5.44;96.78;95493.91;5141328;27;20216;-75
2022/12/05 04:17:03;;;;;;;4.97;3.15;;;;;;;5.45;96.75;95495.50;5141086;27;20241;-75
2022/12/05 04:22:17;;;;;;;3.97;2.75;;;;;;;5.51;95.50;95485.53;5144149;27;20207;-76
2022/12/05 04:27:35;;;;;;;1.85;1.67;;;;;;;5.03;97.29;95489.69;5133951;27;20195;-75
2022/12/05 04:30:05;;;;;;;3.53;2.15;;;;;;;4.97;98.12;95492.38;5145500;27;20667;-76
2022/12/05 04:32:40;;;;;;;5.22;2.40;;;;;;;4.96;98.18;95490.78;5135401;27;20235;-76
2022/12/05 04:35:13;;;;;;;6.65;2.83;;;;;;;4.87;98.54;95489.72;5143378;27;20319;-75
2022/12/05 04:37:44;;;;;;;4.25;2.20;;;;;;;4.81;98.62;95492.66;5147382;27;20258;-76
2022/12/05 04:40:15;;;;;;;3.97;2.00;;;;;;;4.78;99.44;95494.03;5144830;27;20256;-75
2022/12/05 04:42:44;;;;;;;3.22;1.95;;;;;;;4.70;99.69;95505.28;5139741;27;20197;-76
2022/12/05 04:45:15;;;;;;;6.18;2.92;;;;;;;4.69;100.00;95500.19;5141361;27;20193;-75
2022/12/05 04:47:48;;;;;;;4.55;2.17;;;;;;;4.62;100.00;95505.84;5147564;27;20541;-76
2022/12/05 04:50:16;;;;;;;1.70;1.40;;;;;;;4.67;100.00;95508.50;5148392;27;20196;-76
2022/12/05 04:52:49;;;;;;;4.65;1.77;;;;;;;4.74;100.00;95509.06;5145036;27;20250;-76
2022/12/05 04:55:24;;;;;;;4.07;2.70;;;;;;;4.69;100.00;95511.72;5146557;27;20208;-76
2022/12/05 04:57:58;;;;;;;6.57;2.17;;;;;;;4.71;100.00;95514.16;5143415;27;20770;-75
2022/12/05 05:00:28;;;;;;;9.82;2.88;;;;;;;4.75;100.00;95516.03;5139817;27;20216;-76
2022/12/05 05:03:04;;;;;;;5.18;2.83;;;;;;;4.73;100.00;95512.81;5141108;27;20200;-76
2022/12/05 05:05:32;;;;;;;2.08;1.77;;;;;;;4.67;100.00;95524.59;5139606;27;20635;-77
2022/12/05 05:07:59;;;;;;;9.55;2.78;;;;;;;4.71;100.00;95520.31;5138389;27;20205;-77
2022/12/05 05:10:33;;;;;;;5.70;2.10;;;;;;;4.80;100.00;95517.88;5132172;27;20197;-74
2022/12/05 05:12:59;;;;;;;6.43;2.55;;;;;;;4.71;100.00;95520.31;5132269;27;20189;-74
2022/12/05 05:15:26;;;;;;;6.15;2.92;;;;;;;4.64;100.00;95525.16;5130581;27;20205;-76
2022/12/05 05:17:53;;;;;;;2.95;1.80;;;;;;;4.70;100.00;95534.81;5132619;27;20308;-74
2022/12/05 05:20:24;;;;;;;5.25;3.13;;;;;;;4.84;100.00;95530.50;5144699;27;20225;-75
2022/12/05 05:22:51;;;;;;;3.67;2.22;;;;;;;4.92;100.00;95534.56;5131964;27;20257;-75
2022/12/05 05:25:18;;;;;;;4.57;2.00;;;;;;;4.93;100.00;95534.25;5131766;27;20201;-75
2022/12/05 05:27:50;;;;;;;6.28;2.95;;;;;;;5.06;99.68;95532.13;5131964;27;20277;-75
2022/12/05 05:30:17;;;;;;;4.82;2.25;;;;;;;5.14;99.03;95542.31;5131789;27;20207;-75
2022/12/05 05:32:44;;;;;;;2.30;1.60;;;;;;;5.15;98.61;95541.25;5129802;27;20250;-76
2022/12/05 05:35:11;;;;;;;8.80;2.90;;;;;;;5.04;98.60;95545.00;5130887;27;20225;-77
2022/12/05 05:37:40;;;;;;;3.88;1.63;;;;;;;5.11;98.52;95540.16;5131365;27;20962;-75
2022/12/05 05:40:08;;;;;;;4.65;2.45;;;;;;;5.03;98.54;95535.34;5131757;27;20243;-75
2022/12/05 05:42:35;;;;;;;5.25;2.15;;;;;;;5.03;98.65;95535.34;5131620;27;20640;-76
2022/12/05 05:45:02;;;;;;;4.80;2.58;;;;;;;5.08;98.60;95541.50;5142535;27;20687;-76
2022/12/05 05:47:29;;;;;;;5.40;2.55;;;;;;;5.09;98.19;95547.69;5138654;27;20611;-76
2022/12/05 05:49:55;;;;;;;4.03;2.22;;;;;;;5.10;98.12;95550.09;5152279;27;20200;-76
2022/12/05 05:52:22;;;;;;;4.07;2.47;;;;;;;5.17;97.77;95547.16;5132578;27;20205;-76
2022/12/05 05:54:50;;;;;;;5.13;2.40;;;;;;;5.38;97.69;95545.22;5131027;27;20537;-75
2022/12/05 05:57:17;;;;;;;5.30;1.95;;;;;;;5.26;96.62;95553.56;5131524;27;20201;-75
2022/12/05 05:59:44;;;;;;;12.25;3.00;;;;;;;5.30;96.46;95554.66;5130639;27;20612;-76
2022/12/05 06:02:10;;;;;;;6.53;2.88;;;;;;;5.24;96.60;95555.72;5130623;27;20541;-76
2022/12/05 06:04:37;;;;;;;3.53;1.95;;;;;;;5.25;97.04;95546.59;5131156;27;20250;-75
2022/12/05 06:07:04;;;;;;;4.45;2.80;;;;;;;5.30;96.86;95560.81;5131603;27;20227;-74
2022/12/05 06:09:31;;;;;;;3.53;2.35;;;;;;;5.29;96.15;95564.59;5132080;27;20201;-75
2022/12/05 06:11:59;;;;;;;3.67;2.65;;;;;;;5.11;96.90;95562.44;5131199;27;20217;-75
2022/12/05 06:14:25;;;;;;;1.95;1.58;;;;;;;5.00;97.69;95567.03;5131371;27;20201;-76
2022/12/05 06:16:52;;;;;;;8.27;2.75;;;;;;;4.95;97.73;95569.69;5131498;27;20253;-75
2022/12/05 06:19:19;;;;;;;10.88;3.00;;;;;;;4.95;98.01;95558.97;5130760;27;20209;-75
2022/12/05 06:21:49;;;;;;;6.18;2.08;;;;;;;4.95;97.85;95558.97;5137761;27;20232;-75
2022/12/05 06:24:15;;;;;;;1.90;1.40;;;;;;;4.97;98.25;95554.13;5135576;27;20560;-75
2022/12/05 06:26:42;;;;;;;6.97;2.58;;;;;;;4.98;98.23;95558.44;5130464;27;20269;-75
2022/12/05 06:29:11;;;;;;;9.88;3.13;;;;;;;5.00;98.46;95556.28;5130684;27;20416;-76
2022/12/05 06:31:37;;;;;;;8.90;3.35;;;;;;;5.04;98.72;95551.19;5130707;27;20604;-76
2022/12/05 06:34:05;;;;;;;3.67;2.70;;;;;;;5.18;98.53;95556.81;5131108;27;20201;-75
2022/12/05 06:36:32;;;;;;;2.25;1.48;;;;;;;5.16;97.35;95556.28;5130842;27;20285;-75
2022/12/05 06:38:59;;;;;;;4.90;3.15;;;;;;;5.13;97.72;95560.31;5130720;27;20668;-75
2022/12/05 06:41:27;;;;;;;9.70;2.67;;;;;;;5.08;98.08;95556.81;5131078;27;20297;-75
2022/12/05 06:43:55;;;;;;;15.90;3.92;;;;;;;5.06;98.15;95564.34;5129907;27;20215;-74
2022/12/05 06:46:24;;;;;;;5.03;2.90;;;;;;;5.16;97.76;95569.69;5130774;27;20205;-75
2022/12/05 06:48:52;;;;;;;5.22;3.35;;;;;;;5.22;97.27;95569.41;5131162;27;20209;-75
2022/12/05 06:51:19;;;;;;;6.40;2.03;;;;;;;5.20;97.24;95571.56;5141375;27;20223;-75
2022/12/05 06:53:46;;;;;;;8.07;4.35;;;;;;;5.20;97.33;95563.50;5151039;27;20204;-75
2022/12/05 06:56:15;;;;;;;8.75;2.72;;;;;;;5.26;97.05;95564.31;5151130;27;20208;-75
2022/12/05 06:58:44;;;;;;;6.35;1.85;;;;;;;5.26;96.78;95553.56;5150898;27;20212;-75
2022/12/05 07:03:58;;;;;;;1.98;1.50;;;;;;;5.40;96.46;95564.56;5129937;27;20678;-75
2022/12/05 07:06:26;;;;;;;4.20;1.85;;;;;;;5.34;96.44;95566.44;5130263;27;20208;-75
2022/12/05 07:08:53;;;;;;;5.28;2.08;;;;;;;5.39;96.44;95569.13;5130026;27;20269;-75
2022/12/05 07:11:20;;;;;;;6.25;2.60;;;;;;;5.42;96.26;95573.16;5130093;27;20240;-75
2022/12/05 07:13:47;;;;;;;1.98;1.50;;;;;;;5.59;95.60;95574.47;5130303;27;20254;-75
2022/12/05 07:16:14;;;;;;;2.13;1.80;;;;;;;5.57;95.12;95571.25;5130491;27;20197;-75
2022/12/05 07:18:41;;;;;;;4.80;2.60;;;;;;;5.50;94.69;95575.28;5130354;27;20212;-76
2022/12/05 07:21:12;;;;;;;2.70;1.92;;;;;;;5.53;95.22;95572.84;5132156;27;20233;-76
2022/12/05 07:23:39;;;;;;;2.92;1.50;;;;;;;5.50;94.95;95580.66;5140536;27;20216;-75
2022/12/05 07:26:07;;;;;;;2.65;1.52;;;;;;;5.40;95.13;95570.75;5130135;27;20205;-75
2022/12/05 07:28:34;;;;;;;10.00;2.45;;;;;;;5.50;95.19;95573.41;5129230;27;20649;-75
2022/12/05 07:31:01;;;;;;;4.97;2.60;;;;;;;5.69;95.06;95582.50;5130040;27;20205;-75
2022/12/05 07:33:28;;;;;;;3.72;2.03;;;;;;;5.87;94.29;95575.72;5129940;27;20291;-75
2022/12/05 07:36:00;;;;;;;3.25;2.10;;;;;;;6.03;93.88;95584.56;5129979;27;20288;-75
2022/12/05 07:38:28;;;;;;;5.75;2.15;;;;;;;5.93;92.92;95584.59;5131832;27;20197;-75
2022/12/05 07:40:56;;;;;;;4.35;1.83;;;;;;;5.64;93.80;95587.88;5133755;27;20759;-75
2022/12/05 07:43:23;;;;;;;2.92;2.20;;;;;;;5.50;94.58;95586.84;5133455;27;20635;-76
2022/12/05 07:45:50;;;;;;;8.13;2.25;;;;;;;5.61;94.86;95582.25;5133817;27;20257;-76
2022/12/05 07:48:17;;;;;;;3.92;1.83;;;;;;;5.68;95.07;95590.84;5134177;27;20201;-75
2022/12/05 07:50:44;;;;;;;4.18;1.95;;;;;;;5.55;94.65;95594.91;5139732;27;20208;-76
2022/12/05 07:53:10;;;;;;;9.18;2.80;;;;;;;5.55;95.15;95594.91;5154808;27;20261;-76
2022/12/05 07:55:39;;;;;;;12.93;2.67;;;;;;;5.45;95.65;95589.56;5149037;27;20205;-76
2022/12/05 07:58:06;;;;;;;3.20;1.25;;;;;;;5.48;95.51;95586.28;5134307;27;20613;-78
2022/12/05 08:00:33;;;;;;;3.03;1.77;;;;;;;5.57;95.43;95584.69;5133838;27;20228;-76
2022/12/05 08:03:01;;;;;;;4.78;2.13;;;;;;;5.63;95.23;95591.66;5133755;27;20197;-78
2022/12/05 08:05:28;;;;;;;9.30;3.53;;;;;;;5.64;94.96;95576.31;5133140;27;20201;-76
2022/12/05 08:07:55;;;;;;;3.33;2.42;;;;;;;5.70;94.87;95581.44;5147247;27;20257;-74
2022/12/05 08:10:22;;;;;;;3.63;2.22;;;;;;;5.69;94.51;95585.19;5147426;27;20204;-76
2022/12/05 08:12:50;;;;;;;6.22;3.03;;;;;;;5.64;94.18;95579.00;5133710;27;20205;-75
2022/12/05 08:15:17;;;;;;;1.73;1.13;;;;;;;5.68;93.96;95582.78;5133425;27;20258;-76
2022/12/05 08:17:43;;;;;;;2.15;1.55;;;;;;;5.79;93.91;95586.22;5133612;27;20205;-75
2022/12/05 08:20:11;;;;;;;3.78;2.80;;;;;;;5.89;92.63;95583.53;5141192;27;20659;-75
2022/12/05 08:22:38;;;;;;;2.25;1.25;;;;;;;5.93;92.09;95587.28;5139240;27;20593;-74
2022/12/05 08:25:05;;;;;;;1.23;1.13;;;;;;;6.07;91.80;95580.25;5133100;27;20197;-74
2022/12/05 08:27:32;;;;;;;5.57;1.13;;;;;;;6.26;91.42;95583.94;5132940;27;20229;-75
2022/12/05 08:30:00;;;;;;;2.08;1.52;;;;;;;6.22;89.80;95590.94;5133332;27;20606;-77
2022/12/05 08:32:27;;;;;;;2.45;1.20;;;;;;;6.26;89.75;95586.63;5133433;27;20265;-75
2022/12/05 08:34:54;;;;;;;3.83;2.25;;;;;;;6.48;89.00;95590.81;5132425;27;20279;-76
2022/12/05 08:37:21;;;;;;;2.95;1.65;;;;;;;6.66;88.40;95582.91;5132735;27;20197;-74
2022/12/05 08:39:48;;;;;;;1.98;1.50;;;;;;;6.47;88.01;95589.19;5141443;27;20264;-76
2022/12/05 08:42:15;;;;;;;4.13;1.88;;;;;;;6.31;88.66;95581.19;5138036;27;20301;-74
2022/12/05 08:44:41;;;;;;;5.88;2.22;;;;;;;6.16;88.40;95583.97;5132656;27;20739;-75
2022/12/05 08:47:10;;;;;;;1.30;1.20;;;;;;;6.34;88.09;95579.84;5133123;27;20719;-77
2022/12/05 08:49:36;;;;;;;1.58;1.20;;;;;;;6.53;88.02;95580.03;5131185;27;20201;-76
2022/12/05 08:52:03;;;;;;;3.08;1.42;;;;;;;6.39;87.72;95582.53;5149216;27;20208;-74
2022/12/05 08:54:30;;;;;;;2.53;1.55;;;;;;;6.49;87.00;95587.84;5153758;27;20208;-75
2022/12/05 08:56:58;;;;;;;1.05;1.00;;;;;;;6.62;86.09;95586.41;5153620;27;20220;-75
2022/12/05 08:59:25;;;;;;;1.00;0.90;;;;;;;6.50;85.98;95594.03;5153288;27;20265;-76
2022/12/05 09:01:52;;;;;;;2.42;2.22;;;;;;;6.26;86.31;95589.31;5135962;27;20305;-75
2022/12/05 09:04:20;;;;;;;1.15;0.80;;;;;;;6.27;86.55;95585.56;5132470;27;20197;-75
2022/12/05 09:06:46;;;;;;;2.08;1.45;;;;;;;6.02;87.06;95577.56;5132176;27;20287;-75
2022/12/05 09:09:13;;;;;;;3.42;1.45;;;;;;;6.37;86.85;95582.78;5132111;27;20228;-75
2022/12/05 09:11:45;;;;;;;1.58;1.45;;;;;;;6.27;87.00;95587.44;5131885;27;20662;-75
2022/12/05 09:14:12;;;;;;;0.73;0.73;;;;;;;6.27;87.11;95590.94;5132345;27;20928;-75
2022/12/05 09:16:39;;;;;;;1.75;1.50;;;;;;;6.59;86.39;95586.97;5146508;27;20277;-77
2022/12/05 09:19:10;;;;;;;1.30;0.70;;;;;;;6.86;84.98;95576.56;5132312;27;20208;-75
2022/12/05 09:21:39;;;;;;;3.78;2.28;;;;;;;6.90;85.29;95582.19;5132012;27;20633;-75
2022/12/05 09:24:06;;;;;;;6.32;1.80;;;;;;;7.12;83.83;95574.47;5132222;27;20287;-74
2022/12/05 09:26:32;;;;;;;2.67;1.58;;;;;;;7.47;82.72;95565.28;5132292;27;20674;-75
2022/12/05 09:29:01;;;;;;;2.20;1.70;;;;;;;7.83;81.90;95547.63;5132127;27;20236;-76
2022/12/05 09:31:29;;;;;;;1.13;0.75;;;;;;;7.19;83.14;95564.19;5138253;27;20196;-75
2022/12/05 09:33:55;;;;;;;2.78;1.85;;;;;;;7.19;83.69;95569.56;5152825;27;20202;-74
2022/12/05 09:36:23;;;;;;;3.17;1.65;;;;;;;7.26;82.86;95569.22;5152699;27;20255;-75
2022/12/05 09:38:52;;;;;;;2.75;1.80;;;;;;;7.37;82.95;95566.19;5153061;27;20201;-75
2022/12/05 09:44:25;;;;;;;2.72;2.33;;;;;;;6.43;85.98;95564.72;5151936;27;20195;-76
2022/12/05 09:46:56;;;;;;;2.08;1.70;;;;;;;6.43;86.97;95562.03;5152450;27;20196;-75
2022/12/05 09:49:24;;;;;;;1.65;1.30;;;;;;;6.74;86.63;95557.25;5151752;27;20196;-76
2022/12/05 09:51:53;;;;;;;3.63;1.77;;;;;;;6.89;85.21;95549.06;5133204;27;20197;-75
2022/12/05 09:54:22;;;;;;;2.78;2.00;;;;;;;6.74;85.15;95557.25;5131021;27;20196;-75
2022/12/05 09:56:51;;;;;;;4.18;1.98;;;;;;;6.85;85.11;95553.41;5133508;27;20602;-74
2022/12/05 09:59:20;;;;;;;2.63;2.25;;;;;;;6.90;85.25;95545.28;5143015;27;20211;-73
2022/12/05 10:01:55;;;;;;;2.25;2.00;;;;;;;6.85;84.37;95547.22;5130488;27;20602;-75
2022/12/05 10:04:46;;;;;;;1.75;1.42;;;;;;;7.07;84.17;95542.19;5130748;27;20715;-75
2022/12/05 10:07:21;;;;;;;2.80;1.55;;;;;;;7.02;84.10;95537.66;5131241;27;20197;-76
2022/12/05 10:09:57;;;;;;;2.08;1.25;;;;;;;6.97;84.64;95535.00;5130391;27;20277;-75
2022/12/05 10:12:43;;;;;;;5.90;2.47;;;;;;;6.80;84.74;95542.69;5130604;27;20208;-75
2022/12/05 10:15:15;;;;;;;4.32;1.75;;;;;;;6.76;85.29;95538.94;5130314;27;20582;-76
2022/12/05 10:17:44;;;;;;;14.23;2.63;;;;;;;6.75;85.95;95531.94;5130737;27;20208;-76
2022/12/05 10:20:16;;;;;;;4.20;2.25;;;;;;;6.80;85.22;95534.63;5130984;27;20201;-75
2022/12/05 10:22:47;;;;;;;3.53;2.10;;;;;;;6.89;85.14;95522.13;5130920;27;20743;-75
2022/12/05 10:25:20;;;;;;;3.03;2.08;;;;;;;7.04;85.35;95535.47;5139815;27;20245;-76
2022/12/05 10:27:50;;;;;;;3.00;2.03;;;;;;;6.95;85.27;95526.41;5151131;27;20239;-75
2022/12/05 10:30:20;;;;;;;1.48;1.38;;;;;;;6.89;85.12;95526.72;5151493;27;20287;-75
2022/12/05 10:32:53;;;;;;;1.13;1.02;;;;;;;7.09;84.99;95527.38;5151229;27;20291;-75
2022/12/05 10:35:23;;;;;;;3.30;2.08;;;;;;;7.32;84.61;95527.69;5138995;27;20723;-76
2022/12/05 10:37:52;;;;;;;4.10;2.60;;;;;;;7.44;83.06;95514.63;5130606;27;20200;-75
2022/12/05 10:40:22;;;;;;;1.63;1.52;;;;;;;7.29;83.40;95520.16;5130940;27;20205;-75
2022/12/05 10:42:50;;;;;;;9.98;1.70;;;;;;;6.82;84.90;95515.47;5130736;27;20538;-75
2022/12/05 10:45:20;;;;;;;1.80;1.38;;;;;;;6.77;85.41;95514.44;5130511;27;20249;-75
2022/12/05 10:47:48;;;;;;;3.95;2.35;;;;;;;6.89;85.35;95510.56;5137115;27;20264;-75
2022/12/05 10:50:24;;;;;;;2.88;2.03;;;;;;;7.03;85.00;95512.31;5150082;27;20208;-75
2022/12/05 10:52:52;;;;;;;3.10;1.70;;;;;;;7.18;84.36;95505.19;5130750;27;20203;-74
2022/12/05 10:55:21;;;;;;;4.13;2.33;;;;;;;7.40;83.75;95505.50;5130489;27;20205;-75
2022/12/05 10:57:51;;;;;;;8.43;4.13;;;;;;;7.30;83.75;95505.59;5130803;27;20208;-75
2022/12/05 11:00:22;;;;;;;3.97;2.05;;;;;;;7.18;84.47;95505.19;5130229;27;20201;-77
2022/12/05 11:02:49;;;;;;;1.58;1.48;;;;;;;7.06;85.17;95489.41;5130576;27;20232;-75
2022/12/05 11:05:28;;;;;;;4.30;2.15;;;;;;;6.83;85.62;95496.34;5130611;27;20211;-74
2022/12/05 11:07:56;;;;;;;6.38;2.60;;;;;;;6.68;86.62;95509.94;5130405;27;20816;-77
2022/12/05 11:10:34;;;;;;;10.13;2.97;;;;;;;6.60;87.22;95502.44;5136897;27;20536;-75
2022/12/05 11:13:13;;;;;;;1.20;1.10;;;;;;;6.52;88.12;95500.34;5150184;27;20200;-74
2022/12/05 11:15:45;;;;;;;5.28;2.63;;;;;;;6.72;87.63;95500.19;5151109;27;20200;-76
2022/12/05 11:18:19;;;;;;;3.10;1.95;;;;;;;6.85;87.14;95498.75;5151074;27;20203;-76
2022/12/05 11:20:46;;;;;;;1.92;1.77;;;;;;;6.95;86.69;95487.91;5150405;27;20206;-76
2022/12/05 11:23:23;;;;;;;3.40;1.80;;;;;;;6.99;86.75;95481.63;5144681;27;20593;-75
2022/12/05 11:25:52;;;;;;;6.97;2.88;;;;;;;6.74;86.69;95487.25;5130281;27;20207;-75
2022/12/05 11:28:34;;;;;;;3.22;1.85;;;;;;;6.72;87.33;95481.34;5137369;27;20231;-76
2022/12/05 11:31:03;;;;;;;3.22;1.88;;;;;;;6.96;86.82;95479.53;5150838;27;20597;-76
2022/12/05 11:33:32;;;;;;;3.92;2.83;;;;;;;7.08;85.89;95477.25;5150850;27;20619;-76
2022/12/05 11:36:04;;;;;;;4.32;2.58;;;;;;;6.83;86.15;95469.44;5150908;27;20232;-74
2022/12/05 11:38:33;;;;;;;4.68;2.40;;;;;;;7.01;86.29;95459.81;5150838;27;20200;-76
2022/12/05 11:41:17;;;;;;;2.33;1.65;;;;;;;7.25;85.08;95459.84;5136665;27;20272;-75
2022/12/05 11:44:01;;;;;;;3.53;2.45;;;;;;;7.46;84.60;95453.94;5135816;27;20209;-75
2022/12/05 11:46:39;;;;;;;2.75;1.67;;;;;;;7.44;84.46;95448.03;5129216;27;20557;-75
2022/12/05 11:49:28;;;;;;;3.47;2.63;;;;;;;7.20;85.30;95446.44;5148703;27;20200;-75
2022/12/05 11:52:04;;;;;;;4.65;2.60;;;;;;;7.14;86.07;95443.78;5134224;27;20208;-76
2022/12/05 11:54:57;;;;;;;2.42;1.67;;;;;;;6.84;86.66;95446.78;5129292;27;20621;-76
2022/12/05 11:57:42;;;;;;;4.50;2.28;;;;;;;6.94;86.42;95444.00;5121563;27;20257;-75
2022/12/05 12:00:25;;;;;;;2.40;1.45;;;;;;;7.02;86.22;95429.91;5133965;27;20283;-75
2022/12/05 12:03:34;;;;;;;2.53;1.83;;;;;;;6.64;87.32;95438.88;5129617;27;20232;-75
2022/12/05 12:06:22;;;;;;;4.80;2.60;;;;;;;6.40;88.72;95439.63;5141138;27;20200;-75